createdAt,value
2023-05-08T00:02:46.612Z,100630.78
2023-05-08T00:05:48.318Z,100633.41
2023-05-08T00:08:51.457Z,100633.28
2023-05-08T00:11:53.360Z,100635.22
2023-05-08T00:14:55.265Z,100635.94
2023-05-08T00:17:57.238Z,100630.28
2023-05-08T00:20:59.178Z,100631.09
2023-05-08T00:24:02.398Z,100634.63
2023-05-08T00:27:04.300Z,100634.16
2023-05-08T00:30:07.724Z,100634.09
2023-05-08T00:33:09.833Z,100642.66
2023-05-08T00:36:13.999Z,100637.50
2023-05-08T00:39:17.531Z,100632.19
2023-05-08T00:42:19.473Z,100632.44
2023-05-08T00:45:21.253Z,100630.03
2023-05-08T00:48:24.545Z,100634.66
2023-05-08T00:51:27.791Z,100639.81
2023-05-08T00:54:33.327Z,100635.44
2023-05-08T00:57:36.009Z,100638.06
2023-05-08T01:00:42.150Z,100640.19
2023-05-08T01:03:47.431Z,100634.75
2023-05-08T01:06:49.610Z,100630.03
2023-05-08T01:09:52.753Z,100632.91
2023-05-08T01:13:04.900Z,100641.78
2023-05-08T01:16:14.386Z,100647.44
2023-05-08T01:19:52.756Z,100651.84
2023-05-08T01:23:15.252Z,100638.19
2023-05-08T01:26:51.793Z,100644.00
2023-05-08T01:30:24.874Z,100651.69
2023-05-08T01:33:36.145Z,100642.59
2023-05-08T01:36:46.296Z,100644.47
2023-05-08T01:39:55.730Z,100645.41
2023-05-08T01:43:08.274Z,100651.84
2023-05-08T01:46:14.817Z,100655.16
2023-05-08T01:49:24.197Z,100658.13
2023-05-08T01:52:31.928Z,100656.38
2023-05-08T01:55:37.269Z,100657.09
2023-05-08T01:58:41.769Z,100655.56
2023-05-08T02:01:46.249Z,100658.09
2023-05-08T02:04:52.405Z,100661.09
2023-05-08T02:07:55.305Z,100670.13
2023-05-08T02:10:59.148Z,100666.47
2023-05-08T02:14:02.822Z,100670.47
2023-05-08T02:17:07.249Z,100659.94
2023-05-08T02:20:15.001Z,100666.38
2023-05-08T02:23:18.685Z,100666.22
2023-05-08T02:26:22.339Z,100662.94
2023-05-08T02:29:25.191Z,100661.50
2023-05-08T02:32:27.671Z,100666.00
2023-05-08T02:35:32.258Z,100660.41
2023-05-08T02:38:37.739Z,100668.22
2023-05-08T02:41:41.808Z,100663.78
2023-05-08T02:44:43.738Z,100666.22
2023-05-08T02:47:52.059Z,100668.25
2023-05-08T02:51:00.524Z,100667.47
2023-05-08T02:54:10.135Z,100671.66
2023-05-08T02:57:21.648Z,100671.16
2023-05-08T03:00:29.010Z,100669.16
2023-05-08T03:03:37.964Z,100657.28
2023-05-08T03:06:45.676Z,100660.94
2023-05-08T03:09:50.782Z,100665.31
2023-05-08T03:12:55.352Z,100656.47
2023-05-08T03:16:02.120Z,100660.81
2023-05-08T03:19:07.415Z,100655.28
2023-05-08T03:22:11.753Z,100661.75
2023-05-08T03:25:16.733Z,100664.00
2023-05-08T03:28:21.471Z,100651.97
2023-05-08T03:31:25.614Z,100661.47
2023-05-08T03:34:29.752Z,100660.44
2023-05-08T03:37:33.454Z,100658.72
2023-05-08T03:40:44.541Z,100653.84
2023-05-08T03:43:47.256Z,100664.66
2023-05-08T03:46:51.063Z,100655.16
2023-05-08T03:49:54.115Z,100654.13
2023-05-08T03:52:58.286Z,100655.69
2023-05-08T03:56:01.894Z,100659.78
2023-05-08T03:59:10.554Z,100662.44
2023-05-08T04:02:22.022Z,100661.41
2023-05-08T04:05:28.539Z,100663.63
2023-05-08T04:08:39.085Z,100660.75
2023-05-08T04:11:44.297Z,100664.84
2023-05-08T04:14:55.576Z,100658.22
2023-05-08T04:18:02.561Z,100663.75
2023-05-08T04:21:06.928Z,100661.09
2023-05-08T04:24:14.966Z,100658.22
2023-05-08T04:27:19.146Z,100661.81
2023-05-08T04:30:21.324Z,100666.56
2023-05-08T04:33:25.083Z,100667.59
2023-05-08T04:36:29.447Z,100679.50
2023-05-08T04:39:33.896Z,100679.25
2023-05-08T04:42:36.863Z,100684.53
2023-05-08T04:45:39.551Z,100696.44
2023-05-08T04:48:41.407Z,100699.31
2023-05-08T04:51:43.369Z,100701.84
2023-05-08T04:54:46.802Z,100702.13
2023-05-08T04:57:48.646Z,100712.16
2023-05-08T05:00:50.828Z,100704.75
2023-05-08T05:03:52.976Z,100708.06
2023-05-08T05:06:55.079Z,100713.84
2023-05-08T05:10:00.066Z,100712.78
2023-05-08T05:13:02.522Z,100717.56
2023-05-08T05:16:05.004Z,100723.81
2023-05-08T05:19:07.131Z,100718.63
2023-05-08T05:22:09.546Z,100724.84
2023-05-08T05:25:13.371Z,100726.81
2023-05-08T05:28:15.588Z,100731.56
2023-05-08T05:31:17.690Z,100737.00
2023-05-08T05:34:19.762Z,100734.34
2023-05-08T05:37:21.543Z,100732.63
2023-05-08T05:40:25.506Z,100728.66
2023-05-08T05:43:28.235Z,100737.41
2023-05-08T05:46:32.726Z,100724.41
2023-05-08T05:49:37.547Z,100727.03
2023-05-08T05:52:39.457Z,100729.06
2023-05-08T05:55:42.658Z,100732.38
2023-05-08T05:58:45.452Z,100737.91
2023-05-08T06:01:47.764Z,100739.63
2023-05-08T06:04:51.310Z,100737.00
2023-05-08T06:07:53.102Z,100741.88
2023-05-08T06:10:56.713Z,100735.00
2023-05-08T06:13:58.514Z,100738.47
2023-05-08T06:17:00.599Z,100737.91
2023-05-08T06:20:02.538Z,100749.56
2023-05-08T06:23:04.417Z,100746.91
2023-05-08T06:26:07.491Z,100749.28
2023-05-08T06:29:09.304Z,100750.22
2023-05-08T06:32:11.122Z,100750.50
2023-05-08T06:35:13.421Z,100760.13
2023-05-08T06:38:16.392Z,100764.50
2023-05-08T06:41:19.578Z,100759.47
2023-05-08T06:44:21.471Z,100760.13
2023-05-08T06:47:23.281Z,100752.75
2023-05-08T06:50:25.109Z,100764.22
2023-05-08T06:53:26.805Z,100767.66
2023-05-08T06:56:29.824Z,100768.97
2023-05-08T06:59:32.124Z,100761.88
2023-05-08T07:02:33.969Z,100776.38
2023-05-08T07:05:35.898Z,100765.50
2023-05-08T07:08:37.802Z,100780.34
2023-05-08T07:11:40.937Z,100779.66
2023-05-08T07:14:43.201Z,100771.75
2023-05-08T07:17:45.087Z,100782.00
2023-05-08T07:20:47.134Z,100784.38
2023-05-08T07:23:51.552Z,100783.53
2023-05-08T07:26:54.883Z,100786.38
2023-05-08T07:29:58.411Z,100794.41
2023-05-08T07:33:00.184Z,100788.44
2023-05-08T07:36:01.983Z,100791.38
2023-05-08T07:39:04.742Z,100793.47
2023-05-08T07:42:07.891Z,100792.56
2023-05-08T07:45:12.001Z,100787.06
2023-05-08T07:48:33.836Z,100789.72
2023-05-08T07:51:35.535Z,100795.16
2023-05-08T07:54:37.981Z,100795.22
2023-05-08T07:57:42.765Z,100787.28
2023-05-08T08:00:44.892Z,100793.16
2023-05-08T08:03:47.015Z,100791.06
2023-05-08T08:06:48.799Z,100787.16
2023-05-08T08:09:50.633Z,100794.66
2023-05-08T08:12:54.027Z,100796.44
2023-05-08T08:15:57.109Z,100791.91
2023-05-08T08:18:59.592Z,100796.81
2023-05-08T08:22:01.619Z,100791.34
2023-05-08T08:25:03.680Z,100793.44
2023-05-08T08:28:06.769Z,100795.81
2023-05-08T08:31:08.543Z,100802.28
2023-05-08T08:34:10.557Z,100793.47
2023-05-08T08:37:15.198Z,100798.00
2023-05-08T08:40:17.065Z,100793.69
2023-05-08T08:43:20.096Z,100789.22
2023-05-08T08:46:25.765Z,100790.47
2023-05-08T08:49:31.843Z,100795.16
2023-05-08T08:52:41.083Z,100794.31
2023-05-08T08:55:45.887Z,100799.53
2023-05-08T08:58:53.682Z,100800.56
2023-05-08T09:01:58.699Z,100799.53
2023-05-08T09:05:00.983Z,100805.28
2023-05-08T09:08:02.993Z,100798.38
2023-05-08T09:11:04.957Z,100793.81
2023-05-08T09:14:08.764Z,100798.13
2023-05-08T09:17:10.588Z,100798.94
2023-05-08T09:20:14.886Z,100805.78
2023-05-08T09:23:17.474Z,100806.59
2023-05-08T09:26:27.718Z,100810.94
2023-05-08T09:29:30.860Z,100810.72
2023-05-08T09:32:34.093Z,100811.06
2023-05-08T09:35:37.029Z,100818.34
2023-05-08T09:38:40.638Z,100814.59
2023-05-08T09:41:57.674Z,100826.06
2023-05-08T09:45:02.383Z,100819.38
2023-05-08T09:48:04.631Z,100826.56
2023-05-08T09:51:07.312Z,100831.97
2023-05-08T09:54:17.923Z,100833.47
2023-05-08T09:57:19.944Z,100829.88
2023-05-08T10:00:24.650Z,100832.50
2023-05-08T10:03:46.635Z,100821.88
2023-05-08T10:06:57.295Z,100835.28
2023-05-08T10:10:00.641Z,100839.00
2023-05-08T10:13:02.469Z,100829.22
2023-05-08T10:16:07.743Z,100838.81
2023-05-08T10:19:14.499Z,100831.94
2023-05-08T10:22:19.009Z,100833.25
2023-05-08T10:25:23.249Z,100834.13
2023-05-08T10:28:36.924Z,100830.03
2023-05-08T10:31:44.371Z,100831.13
2023-05-08T10:34:53.639Z,100836.41
2023-05-08T10:37:57.006Z,100828.75
2023-05-08T10:41:01.314Z,100828.91
2023-05-08T10:44:03.707Z,100833.38
2023-05-08T10:47:16.655Z,100828.94
2023-05-08T10:50:37.570Z,100824.59
2023-05-08T10:53:44.215Z,100825.94
2023-05-08T10:56:46.092Z,100818.47
2023-05-08T10:59:47.848Z,100825.13
2023-05-08T11:02:51.238Z,100809.00
2023-05-08T11:05:55.184Z,100818.09
2023-05-08T11:08:57.881Z,100816.41
2023-05-08T11:12:15.982Z,100811.00
2023-05-08T11:15:36.254Z,100813.75
2023-05-08T11:19:17.514Z,100808.41
2023-05-08T11:22:27.218Z,100806.16
2023-05-08T11:25:43.400Z,100808.84
2023-05-08T11:28:56.705Z,100805.19
2023-05-08T11:31:58.605Z,100799.72
2023-05-08T11:35:02.299Z,100796.63
2023-05-08T11:38:36.094Z,100786.81
2023-05-08T11:41:39.162Z,100794.41
2023-05-08T11:44:41.116Z,100796.50
2023-05-08T11:47:44.025Z,100794.63
2023-05-08T11:50:47.192Z,100791.28
2023-05-08T11:53:49.077Z,100793.97
2023-05-08T11:56:56.967Z,100795.06
2023-05-08T12:00:00.264Z,100792.84
2023-05-08T12:03:07.271Z,100791.72
2023-05-08T12:06:11.941Z,100790.06
2023-05-08T12:09:15.416Z,100797.63
2023-05-08T12:12:17.150Z,100796.75
2023-05-08T12:15:18.996Z,100802.50
2023-05-08T12:19:14.349Z,100805.41
2023-05-08T12:22:16.419Z,100811.66
2023-05-08T12:25:19.262Z,100803.03
2023-05-08T12:28:21.403Z,100804.34
2023-05-08T12:31:23.952Z,100809.13
2023-05-08T12:34:27.538Z,100806.34
2023-05-08T12:37:29.491Z,100807.41
2023-05-08T12:40:32.764Z,100812.91
2023-05-08T12:43:35.555Z,100808.50
2023-05-08T12:46:45.701Z,100813.16
2023-05-08T12:49:50.066Z,100815.09
2023-05-08T12:52:52.122Z,100810.91
2023-05-08T12:55:56.107Z,100808.78
2023-05-08T12:58:59.687Z,100808.78
2023-05-08T13:02:01.769Z,100817.88
2023-05-08T13:05:05.774Z,100810.94
2023-05-08T13:08:10.789Z,100810.88
2023-05-08T13:11:12.549Z,100813.88
2023-05-08T13:14:14.384Z,100808.75
2023-05-08T13:17:17.869Z,100802.97
2023-05-08T13:20:21.256Z,100803.53
2023-05-08T13:23:23.731Z,100795.41
2023-05-08T13:26:26.282Z,100785.63
2023-05-08T13:29:28.231Z,100788.34
2023-05-08T13:32:30.156Z,100783.50
2023-05-08T13:35:33.776Z,100786.66
2023-05-08T13:38:35.710Z,100791.69
2023-05-08T13:41:37.565Z,100794.72
2023-05-08T13:44:39.392Z,100784.00
2023-05-08T13:47:42.010Z,100788.72
2023-05-08T13:50:45.468Z,100786.03
2023-05-08T13:53:47.128Z,100783.56
2023-05-08T13:56:49.830Z,100780.78
2023-05-08T13:59:52.256Z,100778.09
2023-05-08T14:02:54.159Z,100779.16
2023-05-08T14:05:57.308Z,100781.84
2023-05-08T14:08:59.048Z,100780.25
2023-05-08T14:12:00.734Z,100776.41
2023-05-08T14:15:04.535Z,100775.47
2023-05-08T14:18:06.456Z,100773.56
2023-05-08T14:21:09.747Z,100768.66
2023-05-08T14:24:11.809Z,100768.00
2023-05-08T14:27:13.794Z,100761.72
2023-05-08T14:30:15.934Z,100757.97
2023-05-08T14:33:19.357Z,100758.28
2023-05-08T14:36:22.890Z,100763.47
2023-05-08T14:39:24.652Z,100763.81
2023-05-08T14:42:26.364Z,100759.16
2023-05-08T14:45:48.291Z,100746.16
2023-05-08T14:48:50.459Z,100742.91
2023-05-08T14:51:53.866Z,100749.94
2023-05-08T14:54:55.748Z,100737.66
2023-05-08T14:57:58.120Z,100742.78
2023-05-08T15:00:59.872Z,100743.53
2023-05-08T15:04:01.983Z,100726.84
2023-05-08T15:07:05.580Z,100733.03
2023-05-08T15:10:08.132Z,100730.34
2023-05-08T15:13:09.967Z,100733.16
2023-05-08T15:16:11.833Z,100729.84
2023-05-08T15:19:13.705Z,100734.44
2023-05-08T15:22:17.775Z,100737.09
2023-05-08T15:25:19.903Z,100737.97
2023-05-08T15:28:21.576Z,100735.81
2023-05-08T15:31:23.438Z,100737.13
2023-05-08T15:34:29.066Z,100733.25
2023-05-08T15:37:37.355Z,100733.59
2023-05-08T15:40:42.377Z,100733.75
2023-05-08T15:43:46.297Z,100733.59
2023-05-08T15:46:48.055Z,100740.03
2023-05-08T15:49:50.075Z,100746.81
2023-05-08T15:52:53.098Z,100743.72
2023-05-08T15:55:55.695Z,100742.00
2023-05-08T15:58:57.432Z,100748.13
2023-05-08T16:01:59.230Z,100741.97
2023-05-08T16:05:00.873Z,100744.13
2023-05-08T16:08:05.899Z,100741.94
2023-05-08T16:11:31.401Z,100751.06
2023-05-08T16:14:33.107Z,100749.63
2023-05-08T16:17:35.161Z,100750.97
2023-05-08T16:20:39.788Z,100754.34
2023-05-08T16:23:43.668Z,100756.38
2023-05-08T16:26:45.409Z,100747.31
2023-05-08T16:29:47.309Z,100750.69
2023-05-08T16:32:49.125Z,100741.38
2023-05-08T16:35:51.325Z,100742.22
2023-05-08T16:38:54.630Z,100745.44
2023-05-08T16:41:56.491Z,100740.50
2023-05-08T16:44:58.173Z,100737.28
2023-05-08T16:48:00.277Z,100740.00
2023-05-08T16:51:02.390Z,100740.75
2023-05-08T16:54:06.346Z,100742.84
2023-05-08T16:57:08.016Z,100729.16
2023-05-08T17:00:10.896Z,100728.19
2023-05-08T17:03:12.815Z,100728.22
2023-05-08T17:06:14.551Z,100715.53
2023-05-08T17:09:18.470Z,100720.81
2023-05-08T17:12:20.771Z,100715.44
2023-05-08T17:15:22.837Z,100714.34
2023-05-08T17:18:24.756Z,100714.66
2023-05-08T17:21:26.648Z,100722.34
2023-05-08T17:24:30.955Z,100724.63
2023-05-08T17:28:37.148Z,100718.38
2023-05-08T17:31:38.948Z,100720.06
2023-05-08T17:34:43.772Z,100720.16
2023-05-08T17:37:45.968Z,100717.34
2023-05-08T17:40:47.788Z,100717.59
2023-05-08T17:43:52.328Z,100717.34
2023-05-08T17:46:54.030Z,100725.78
2023-05-08T17:49:56.047Z,100728.59
2023-05-08T17:52:58.145Z,100727.00
2023-05-08T17:56:00.610Z,100722.06
2023-05-08T17:59:03.832Z,100737.22
2023-05-08T18:02:06.125Z,100743.16
2023-05-08T18:05:11.746Z,100735.69
2023-05-08T18:08:13.848Z,100740.22
2023-05-08T18:11:17.543Z,100739.31
2023-05-08T18:14:20.565Z,100738.75
2023-05-08T18:17:22.824Z,100735.78
2023-05-08T18:20:24.820Z,100740.66
2023-05-08T18:23:27.006Z,100741.44
2023-05-08T18:26:29.139Z,100739.41
2023-05-08T18:29:32.303Z,100748.47
2023-05-08T18:32:35.362Z,100745.78
2023-05-08T18:35:37.211Z,100748.53
2023-05-08T18:38:42.532Z,100745.72
2023-05-08T18:41:45.068Z,100747.09
2023-05-08T18:44:48.703Z,100743.03
2023-05-08T18:47:57.054Z,100749.47
2023-05-08T18:50:59.029Z,100744.63
2023-05-08T18:54:01.252Z,100740.00
2023-05-08T18:57:03.999Z,100741.78
2023-05-08T19:00:08.915Z,100751.72
2023-05-08T19:03:11.106Z,100749.34
2023-05-08T19:06:15.335Z,100755.03
2023-05-08T19:09:17.095Z,100760.34
2023-05-08T19:12:19.188Z,100758.38
2023-05-08T19:15:22.721Z,100747.69
2023-05-08T19:18:24.658Z,100741.59
2023-05-08T19:21:26.591Z,100754.72
2023-05-08T19:24:29.934Z,100747.56
2023-05-08T19:27:32.132Z,100748.41
2023-05-08T19:30:35.316Z,100744.53
2023-05-08T19:33:37.270Z,100748.53
2023-05-08T19:36:39.071Z,100756.13
2023-05-08T19:39:43.959Z,100754.16
2023-05-08T19:42:46.037Z,100751.22
2023-05-08T19:45:49.342Z,100755.81
2023-05-08T19:48:51.285Z,100746.31
2023-05-08T19:51:53.152Z,100746.78
2023-05-08T19:54:56.692Z,100749.19
2023-05-08T19:57:58.409Z,100747.50
2023-05-08T20:01:01.795Z,100745.91
2023-05-08T20:04:03.766Z,100744.84
2023-05-08T20:07:06.252Z,100748.84
2023-05-08T20:10:09.519Z,100747.44
2023-05-08T20:13:11.483Z,100737.13
2023-05-08T20:16:14.953Z,100742.41
2023-05-08T20:19:18.867Z,100740.38
2023-05-08T20:22:21.544Z,100745.00
2023-05-08T20:25:23.794Z,100743.16
2023-05-08T20:28:26.094Z,100755.41
2023-05-08T20:31:30.757Z,100745.34
2023-05-08T20:34:32.869Z,100753.56
2023-05-08T20:37:34.661Z,100746.28
2023-05-08T20:40:36.806Z,100747.94
2023-05-08T20:43:38.681Z,100743.75
2023-05-08T20:46:41.780Z,100736.16
2023-05-08T20:50:03.669Z,100732.69
2023-05-08T20:53:05.613Z,100729.38
2023-05-08T20:56:07.838Z,100725.09
2023-05-08T20:59:09.687Z,100720.91
2023-05-08T21:02:12.807Z,100728.81
2023-05-08T21:05:14.663Z,100714.84
2023-05-08T21:08:16.686Z,100714.84
2023-05-08T21:11:18.447Z,100720.84
2023-05-08T21:14:20.444Z,100714.81
2023-05-08T21:17:23.893Z,100717.13
2023-05-08T21:20:25.711Z,100713.81
2023-05-08T21:23:29.732Z,100711.81
2023-05-08T21:26:31.537Z,100714.16
2023-05-08T21:29:33.436Z,100703.03
2023-05-08T21:32:36.521Z,100713.34
2023-05-08T21:35:38.300Z,100699.72
2023-05-08T21:38:40.886Z,100701.34
2023-05-08T21:41:43.335Z,100699.34
2023-05-08T21:44:45.112Z,100699.44
2023-05-08T21:47:48.412Z,100706.81
2023-05-08T21:50:50.219Z,100708.00
2023-05-08T21:53:51.953Z,100700.19
2023-05-08T21:56:53.762Z,100701.34
2023-05-08T21:59:55.594Z,100695.53
2023-05-08T22:02:59.043Z,100697.97
2023-05-08T22:06:00.834Z,100698.41
2023-05-08T22:09:03.151Z,100690.66
2023-05-08T22:12:06.402Z,100690.88
2023-05-08T22:15:18.050Z,100685.47
2023-05-08T22:18:25.124Z,100684.50
2023-05-08T22:21:29.553Z,100681.84
2023-05-08T22:24:31.397Z,100669.72
2023-05-08T22:27:33.265Z,100671.38
2023-05-08T22:30:35.000Z,100675.59
2023-05-08T22:33:38.022Z,100674.13
2023-05-08T22:36:39.971Z,100670.19
2023-05-08T22:39:41.806Z,100667.72
2023-05-08T22:42:47.243Z,100660.06
2023-05-08T22:45:49.088Z,100661.44
2023-05-08T22:48:54.916Z,100655.91
2023-05-08T22:51:56.955Z,100645.88
2023-05-08T22:54:58.596Z,100643.34
2023-05-08T22:58:00.696Z,100640.00
2023-05-08T23:01:02.622Z,100627.13
2023-05-08T23:04:05.938Z,100624.38
2023-05-08T23:07:07.912Z,100628.28
2023-05-08T23:10:10.957Z,100629.22
2023-05-08T23:13:12.907Z,100628.13
2023-05-08T23:16:14.693Z,100624.38
2023-05-08T23:19:17.856Z,100617.66
2023-05-08T23:22:19.495Z,100615.25
2023-05-08T23:25:21.231Z,100614.34
2023-05-08T23:28:23.194Z,100614.44
2023-05-08T23:31:25.220Z,100615.34
2023-05-08T23:34:28.395Z,100612.59
2023-05-08T23:37:30.102Z,100605.44
2023-05-08T23:40:31.784Z,100608.88
2023-05-08T23:43:33.589Z,100605.34
2023-05-08T23:46:35.464Z,100611.19
2023-05-08T23:49:38.675Z,100601.38
2023-05-08T23:52:41.337Z,100604.00
2023-05-08T23:55:43.082Z,100591.44
2023-05-08T23:58:44.882Z,100591.81
